Latest Weather Observations for Mortlake

IDV60801

Issued at 4:32 am EDT Tuesday 21 February 2017 (issued every 30 minutes, with the page automatically refreshed every 10 minutes)

About weather observations | Map of weather stations | Latest weather observations for VIC | Other Formats
Station Details ID: 090176 Name: MORTLAKE RACECOURSE Lat: -38.07 Lon: 142.77 Height: 130.0 m
Data from the previous 72 hours. | See also: Recent months at Mortlake
Date/Time
EDT
Temp
°C
App
Temp
°C
Dew
Point
°C
Rel
Hum
%
Delta-T
°C
Wind Press
QNH
hPa
Press
MSL
hPa
Rain since
9am
mm
Dir  Spd
km/h
Gust
km/h
Spd
kts
Gust
kts
21/04:00am 4.7 2.4 4.7 100 0.0 NNW 6 6 3 3 1019.2 1018.9 0.0
21/03:30am 5.2 3.0 5.2 100 0.0 N 6 6 3 3 1019.1 1018.8 0.0
21/03:00am 5.1 2.8 5.0 99 0.0 N 6 7 3 4 1019.2 1018.9 0.0
21/02:30am 5.1 2.8 5.0 99 0.0 N 6 7 3 4 1019.4 1019.1 0.0
21/02:00am 5.6 3.8 5.3 98 0.1 N 4 6 2 3 1019.3 1019.0 0.0
21/01:30am 5.6 3.2 5.2 97 0.2 NW 7 9 4 5 1019.4 1019.1 0.0
21/01:00am 5.9 4.1 5.3 96 0.3 WSW 4 4 2 2 1019.6 1019.3 0.0
21/12:30am 6.8 5.2 6.2 96 0.3 WSW 4 4 2 2 1019.6 1019.3 0.0
21/12:00am 6.7 5.0 5.7 93 0.4 WSW 4 4 2 2 1019.7 1019.4 0.0
 
Date/Time
EDT
Temp
°C
App
Temp
°C
Dew
Point
°C
Rel
Hum
%
Delta-T
°C
Wind Press
QNH
hPa
Press
MSL
hPa
Rain since
9am
mm
Dir  Spd
km/h
Gust
km/h
Spd
kts
Gust
kts
20/11:30pm 7.4 6.1 6.2 92 0.5 WSW 2 2 1 1 1019.5 1019.2 0.0
20/11:00pm 7.3 5.5 5.4 88 0.8 WSW 4 4 2 2 1019.5 1019.2 0.0
20/10:30pm 9.8 8.5 7.6 86 1.1 WSW 4 4 2 2 1019.3 1019.0 0.0
20/10:00pm 10.4 8.8 8.2 86 1.1 WSW 6 7 3 4 1019.4 1019.1 0.0
20/09:30pm 10.6 9.0 8.0 84 1.3 SW 6 7 3 4 1019.2 1018.9 0.0
20/09:00pm 11.2 9.4 7.9 80 1.6 SW 7 9 4 5 1018.8 1018.5 0.0
20/08:30pm 12.3 10.0 7.6 73 2.3 SSW 9 13 5 7 1018.4 1018.1 0.0
20/08:00pm 13.9 10.6 7.9 67 3.0 SSW 15 20 8 11 1018.0 1017.7 0.0
20/07:30pm 15.6 11.3 6.9 56 4.3 SSW 19 26 10 14 1017.4 1017.0 0.0
20/07:00pm 16.1 10.8 6.8 54 4.6 SW 24 33 13 18 1017.1 1016.7 0.0
20/06:30pm 16.6 10.9 6.7 52 4.9 SSW 26 35 14 19 1017.0 1016.6 0.0
20/06:00pm 17.2 12.1 7.5 53 4.9 SW 24 33 13 18 1016.8 1016.4 0.0
20/05:30pm 16.6 10.5 6.7 52 4.9 SW 28 35 15 19 1016.4 1016.0 0.0
20/05:00pm 17.3 11.3 7.1 51 5.1 SW 28 37 15 20 1016.2 1015.8 0.0
20/04:30pm 16.8 11.5 6.9 52 4.9 SW 24 33 13 18 1016.1 1015.7 0.0
20/04:05pm 17.9 12.1 7.9 52 5.1 SW 28 46 15 25 1015.9 1015.5 0.0
20/04:00pm 17.6 12.2 8.2 54 4.8 SW 26 39 14 21 1015.8 1015.4 0.0
20/03:30pm 17.0 11.1 7.6 54 4.8 SW 28 39 15 21 1015.8 1015.4 0.0
20/03:00pm 17.2 11.1 8.1 55 4.7 SW 30 43 16 23 1015.7 1015.3 0.0
20/02:30pm 17.3 10.9 8.7 57 4.5 SW 32 43 17 23 1015.7 1015.3 0.0
20/02:00pm 18.6 13.5 9.1 54 5.0 SW 26 37 14 20 1015.6 1015.2 0.0
20/01:30pm 17.2 11.7 7.5 53 4.9 SW 26 39 14 21 1015.6 1015.2 0.0
20/01:00pm 16.5 10.6 7.7 56 4.4 SSW 28 41 15 22 1015.6 1015.2 0.0
20/12:30pm 16.4 11.2 7.1 54 4.6 SW 24 39 13 21 1015.5 1015.1 0.0
20/12:00pm 16.7 11.9 8.7 59 4.1 SW 24 41 13 22 1015.6 1015.2 0.0
20/11:30am 16.1 10.7 8.1 59 4.1 SW 26 37 14 20 1015.5 1015.1 0.0
20/11:00am 17.1 11.8 8.5 57 4.4 SW 26 35 14 19 1015.6 1015.2 0.0
20/10:30am 16.2 10.7 7.4 56 4.4 SW 26 39 14 21 1015.4 1015.0 0.0
20/10:00am 15.4 9.5 7.7 60 3.9 SW 28 39 15 21 1015.2 1014.8 0.0
20/09:30am 14.6 9.7 8.5 67 3.1 SW 24 32 13 17 1015.1 1014.7 0.0
20/09:00am 13.6 12.4 11.7 88 1.0 W 9 15 5 8 1014.7 1014.3 6.8
20/08:30am 12.0 10.7 11.4 96 0.3 WSW 9 15 5 8 1014.4 1014.0 6.8
20/08:00am 10.4 9.1 9.8 96 0.3 WNW 7 11 4 6 1014.1 1013.7 6.8
20/07:30am 10.7 8.9 9.5 92 0.6 WSW 9 15 5 8 1013.6 1013.3 6.8
20/07:00am 11.0 8.2 9.9 93 0.6 SW 15 24 8 13 1013.2 1012.9 6.8
20/06:30am 10.2 9.0 10.2 100 0.0 W 7 20 4 11 1013.0 1012.7 6.8
20/06:00am 9.2 7.6 8.9 98 0.1 W 7 9 4 5 1012.7 1012.4 6.8
20/05:30am 9.9 8.1 9.3 96 0.3 WNW 9 13 5 7 1012.6 1012.3 6.8
20/05:00am 10.8 8.8 10.0 95 0.4 W 11 17 6 9 1012.4 1012.1 6.6
20/04:30am 10.6 8.1 9.8 95 0.4 WSW 13 19 7 10 1012.4 1012.1 6.6
20/04:00am 10.6 8.2 10.0 96 0.3 WSW 13 19 7 10 1012.3 1012.0 6.6
20/03:30am 10.0 7.6 9.9 99 0.1 W 13 19 7 10 1012.1 1011.8 6.2
20/03:00am 8.8 6.4 8.7 99 0.0 WNW 11 13 6 7 1012.2 1011.9 6.2
20/02:30am 8.7 6.2 8.3 97 0.2 WNW 11 13 6 7 1012.1 1011.8 6.2
20/02:00am 9.0 6.9 8.2 95 0.4 W 9 15 5 8 1012.3 1012.0 6.2
20/01:30am 9.4 7.0 8.8 96 0.3 W 11 17 6 9 1012.4 1012.1 6.2
20/01:00am 9.6 7.6 8.8 95 0.4 W 9 13 5 7 1012.4 1012.1 6.2
20/12:30am 10.1 7.9 9.5 96 0.3 W 11 17 6 9 1012.4 1012.1 6.2
20/12:00am 9.8 7.6 9.3 97 0.2 W 11 17 6 9 1012.4 1012.1 6.2
 
Date/Time
EDT
Temp
°C
App
Temp
°C
Dew
Point
°C
Rel
Hum
%
Delta-T
°C
Wind Press
QNH
hPa
Press
MSL
hPa
Rain since
9am
mm
Dir  Spd
km/h
Gust
km/h
Spd
kts
Gust
kts
19/11:30pm 9.1 7.4 8.3 95 0.4 W 7 11 4 6 1012.4 1012.1 6.2
19/11:00pm 9.3 7.8 8.4 94 0.4 SW 6 9 3 5 1012.6 1012.3 6.2
19/10:30pm 9.7 7.7 8.6 93 0.5 W 9 13 5 7 1012.5 1012.2 6.2
19/10:00pm 9.9 7.5 8.8 93 0.5 W 11 15 6 8 1012.3 1012.0 6.2
19/09:30pm 10.4 8.2 9.5 94 0.5 W 11 17 6 9 1012.1 1011.8 6.2
19/09:00pm 10.6 7.9 9.0 90 0.8 SW 13 17 7 9 1011.8 1011.5 6.2
19/08:30pm 10.9 7.9 9.2 89 0.9 SW 15 22 8 12 1011.4 1011.1 5.6
19/08:00pm 12.6 8.4 7.5 71 2.5 SW 19 28 10 15 1011.2 1010.9 4.0
19/07:30pm 13.8 8.2 7.3 65 3.2 SW 26 37 14 20 1010.7 1010.3 4.0
19/07:00pm 14.7 9.1 8.6 67 3.1 SW 28 39 15 21 1010.3 1009.9 4.0
19/06:30pm 14.0 9.0 8.0 67 3.0 WSW 24 41 13 22 1010.1 1009.7 4.0
19/06:00pm 15.4 9.7 8.2 62 3.7 WSW 28 46 15 25 1009.9 1009.5 4.0
19/05:30pm 13.5 6.8 7.5 67 3.0 SW 32 44 17 24 1009.8 1009.4 4.0
19/05:00pm 14.2 7.1 7.9 66 3.2 SW 35 46 19 25 1009.7 1009.3 4.0
19/04:30pm 11.0 3.0 7.5 79 1.7 SW 39 61 21 33 1010.0 1009.6 4.0
19/04:10pm 14.2 8.1 9.8 75 2.3 SW 32 50 17 27 1009.6 1009.2 4.0
19/04:00pm 14.6 7.3 8.8 68 3.0 SW 37 46 20 25 1009.5 1009.1 4.0
19/03:30pm 11.7 7.2 8.4 80 1.6 WSW 22 32 12 17 1010.0 1009.6 4.0
19/03:03pm 12.2 3.8 7.3 72 2.4 SW 41 61 22 33 1010.1 1009.7 3.8
19/03:00pm 13.4 5.2 8.3 71 2.6 SW 41 61 22 33 1010.0 1009.6 3.8
19/02:53pm 13.4 7.2 7.8 69 2.8 SW 30 57 16 31 1009.9 1009.5 3.8
19/02:30pm 11.6 7.7 9.3 86 1.2 WSW 20 37 11 20 1010.0 1009.6 3.8
19/02:23pm 10.8 5.1 8.4 85 1.2 WSW 28 54 15 29 1010.1 1009.7 3.8
19/02:00pm 10.8 6.7 8.7 87 1.0 SW 20 30 11 16 1010.0 1009.6 3.2
19/01:43pm 14.4 8.1 7.5 63 3.4 SW 30 57 16 31 1010.1 1009.7 3.0
19/01:30pm 13.6 8.0 7.2 65 3.1 WSW 26 39 14 21 1009.9 1009.5 3.0
19/01:00pm 13.3 6.9 8.4 72 2.5 SW 32 54 17 29 1010.0 1009.6 3.0
19/12:57pm 14.6 9.3 9.8 73 2.5 WSW 28 50 15 27 1009.9 1009.5 3.0
19/12:30pm 10.8 6.3 8.7 87 1.0 WSW 22 41 12 22 1010.4 1010.0 3.0
19/12:00pm 11.9 8.2 9.5 85 1.2 W 19 30 10 16 1010.6 1010.2 1.8
19/11:30am 13.6 9.5 8.7 72 2.5 WSW 20 37 11 20 1010.5 1010.1 1.6
19/11:00am 13.0 11.3 12.5 97 0.3 W 13 20 7 11 1010.7 1010.3 1.6
19/10:30am 11.6 9.3 11.6 100 0.0 WSW 15 24 8 13 1011.0 1010.7 1.6
19/10:00am 11.0 8.5 11.0 100 0.0 WNW 15 22 8 12 1010.7 1010.3 0.8
19/09:30am 11.1 7.9 11.1 100 0.0 WNW 19 26 10 14 1010.5 1010.1 0.6
19/09:00am 10.7 7.1 10.7 100 0.0 WNW 20 30 11 16 1010.5 1010.1 6.8
19/08:30am 10.4 7.3 10.4 100 0.0 WNW 17 24 9 13 1010.2 1009.8 6.2
19/08:00am 10.0 6.8 10.0 100 0.0 WNW 17 24 9 13 1010.1 1009.7 5.4
19/07:30am 9.7 6.8 9.6 99 0.1 WNW 15 19 8 10 1010.1 1009.7 4.0
19/07:00am 9.8 6.5 9.7 99 0.1 WNW 17 20 9 11 1009.9 1009.5 4.0
19/06:30am 9.6 7.0 9.5 99 0.1 WNW 13 20 7 11 1009.6 1009.2 3.8
19/06:00am 9.7 7.5 9.4 98 0.2 WNW 11 19 6 10 1009.7 1009.3 2.8
19/05:30am 9.5 6.4 9.0 97 0.2 NW 15 19 8 10 1009.9 1009.5 2.6
19/05:00am 9.7 6.2 8.9 95 0.4 NW 17 22 9 12 1009.7 1009.3 2.6
19/04:30am 9.5 5.9 8.4 93 0.5 WNW 17 24 9 13 1010.1 1009.7 2.6
19/04:00am 9.7 6.5 8.5 92 0.6 WNW 15 20 8 11 1010.4 1010.0 2.6
19/03:30am 9.3 5.6 7.9 91 0.7 NW 17 20 9 11 1010.5 1010.1 2.6
19/03:00am 9.5 5.4 7.8 89 0.8 WNW 19 30 10 16 1010.7 1010.3 2.6
19/02:30am 8.9 5.1 7.4 90 0.7 WNW 17 22 9 12 1011.1 1010.8 2.6
19/02:00am 8.4 4.8 6.9 90 0.7 NW 15 22 8 12 1011.5 1011.2 2.6
19/01:30am 7.8 4.1 6.4 91 0.6 NW 15 20 8 11 1011.8 1011.5 2.6
19/01:00am 7.6 4.7 6.4 92 0.6 NW 11 15 6 8 1012.0 1011.7 2.6
19/12:30am 7.5 4.8 5.8 89 0.8 NW 9 13 5 7 1012.4 1012.1 2.6
19/12:00am 8.2 5.3 6.5 89 0.8 NW 11 13 6 7 1012.7 1012.4 2.6
 
Date/Time
EDT
Temp
°C
App
Temp
°C
Dew
Point
°C
Rel
Hum
%
Delta-T
°C
Wind Press
QNH
hPa
Press
MSL
hPa
Rain since
9am
mm
Dir  Spd
km/h
Gust
km/h
Spd
kts
Gust
kts
18/11:30pm 7.9 5.3 6.0 88 0.9 WNW 9 11 5 6 1012.8 1012.5 2.6
18/11:00pm 7.9 5.2 5.7 86 1.0 WNW 9 11 5 6 1012.9 1012.6 2.6
18/10:30pm 9.3 6.7 6.2 81 1.4 W 9 13 5 7 1013.1 1012.8 2.6
18/10:00pm 9.1 6.6 6.4 83 1.3 WNW 9 11 5 6 1013.1 1012.8 2.6
18/09:30pm 10.3 8.2 5.9 74 2.0 W 6 9 3 5 1013.0 1012.7 2.6
18/09:00pm 11.3 9.1 6.0 70 2.5 W 7 9 4 5 1012.8 1012.5 2.6
18/08:30pm 12.5 8.8 6.3 66 3.0 WSW 15 20 8 11 1012.6 1012.3 2.6
18/08:00pm 13.2 9.0 5.9 61 3.5 WSW 17 26 9 14 1012.5 1012.2 2.6
18/07:30pm 14.3 9.6 5.9 57 4.0 WSW 20 30 11 16 1012.1 1011.8 2.6
18/07:00pm 14.7 9.2 5.8 55 4.3 WSW 24 37 13 20 1012.0 1011.7 2.6
18/06:30pm 16.5 11.6 5.2 47 5.4 WSW 20 33 11 18 1011.7 1011.4 2.6
18/06:00pm 16.9 11.7 7.3 53 4.8 SW 24 37 13 20 1011.7 1011.4 2.6
18/05:30pm 15.3 11.7 8.3 63 3.6 SW 17 30 9 16 1011.8 1011.5 2.6
18/05:00pm 15.6 9.6 7.1 57 4.2 SW 28 39 15 21 1011.8 1011.5 2.6
18/04:30pm 14.4 12.0 8.8 69 2.9 W 11 20 6 11 1011.9 1011.6 2.6
18/04:00pm 14.2 12.8 12.1 87 1.1 WNW 11 15 6 8 1012.1 1011.8 2.6
18/03:30pm 11.4 7.2 9.7 89 0.9 WNW 22 32 12 17 1012.4 1012.1 2.6
18/03:15pm 12.7 7.3 6.5 66 3.0 WNW 24 54 13 29 1012.2 1011.9 2.0
18/03:00pm 16.9 13.0 5.2 46 5.6 W 15 24 8 13 1011.9 1011.6 2.0
18/02:30pm 16.6 11.5 4.3 44 5.8 W 20 28 11 15 1012.0 1011.7 2.0
18/02:00pm 17.5 13.1 6.4 48 5.5 W 19 28 10 15 1012.1 1011.8 2.0
18/01:30pm 14.3 9.1 7.4 63 3.4 SW 24 35 13 19 1012.4 1012.1 2.0
18/01:00pm 15.2 10.7 7.0 58 4.1 SW 20 28 11 15 1012.3 1012.0 2.0
18/12:30pm 14.7 11.9 9.9 73 2.5 SW 15 24 8 13 1012.3 1012.0 2.0
18/12:00pm 12.0 9.4 9.2 83 1.4 SW 13 20 7 11 1012.5 1012.2 1.8
18/11:30am 13.2 12.3 10.7 85 1.3 WNW 6 11 3 6 1012.4 1012.1 1.6
18/11:00am 10.3 5.8 7.0 80 1.6 WSW 20 35 11 19 1012.8 1012.5 1.6
18/10:30am 15.1 10.8 6.9 58 4.0 SW 19 24 10 13 1012.2 1011.9 0.0
18/10:00am 14.8 10.5 7.1 60 3.8 W 19 28 10 15 1012.0 1011.7 0.0
18/09:30am 13.1 9.5 8.4 73 2.4 WNW 17 24 9 13 1011.8 1011.5 0.0
18/09:00am 12.1 9.1 9.1 82 1.5 WNW 15 22 8 12 1011.7 1011.4 0.4
18/08:30am 10.4 8.9 10.4 100 0.0 NW 9 13 5 7 1011.5 1011.2 -
18/08:00am 9.3 7.5 9.3 100 0.0 NNW 9 13 5 7 1011.2 1010.9 -
18/07:30am 8.4 6.7 8.4 100 0.0 NW 7 9 4 5 1011.0 1010.7 -
18/07:00am 8.1 6.3 8.1 100 0.0 NW 7 11 4 6 1010.6 1010.2 -
18/06:30am 6.5 4.6 6.5 100 0.0 NW 6 9 3 5 1010.7 1010.3 -
18/06:00am 7.1 5.1 7.0 99 0.0 NNW 7 9 4 5 1010.3 1009.9 -
18/05:30am 7.5 5.5 7.1 97 0.2 NW 7 9 4 5 1010.3 1009.9 -
18/05:00am 8.6 7.0 7.8 95 0.4 WNW 6 7 3 4 1010.3 1009.9 -

Other Formats:

Comma delimited format used in spreadsheet applications
http://www.bom.gov.au/fwo/IDV60801/IDV60801.94840.axf

JavaScript Object Notation format (JSON) in row-major order
http://www.bom.gov.au/fwo/IDV60801/IDV60801.94840.json